Colorado Springs, CO (80921)

3:32 AM MDT on September 23, 2014 (GMT -0600)
Gleneagle | Change Station
CLOSE
Current Station
Personal Weather Station
Location: Colorado Springs, CO
Elevation: 6811 ft
Nearby Weather Stations

Elev 6811 ft 39.03 °N, 104.83 °W | Updated 3 minutes ago

Clear
Clear
48.0 °F
Feels Like 48 °F
N
0.0
Wind Variable Wind from WSW

Today
High -- | Low -- °F
--% Chance of Precip.
Yesterday
High -- | Low -- °F
Precip. -- in
6:47 AM 6:54 PM
Waning Crescent, 1% visible
Pressure 30.02 in
Visibility 10.0 miles
Clouds Clear
Windchill 48 °F
Dew Point 44 °F
Humidity 85%
Rainfall 0.00 in
Snow Depth 0 in , 0 in , 0 in
UV 0 out of 12
Pollen 4.60 out of 12
PM2.5 Good
Flu Activity Not available.
METAR KAFF 230858Z AUTO 02005KT 10SM CLR 09/07 A3021 RMK AO2 SLP165 T00870070

More Conditions Fewer Conditions

Pressure 30.02 in
Visibility 10.0 miles
Clouds Clear
Windchill 48 °F
Dew Point 44 °F
Humidity 85%
Rainfall 0.00 in
Snow Depth 0 in , 0 in , 0 in
UV 0 out of 12
Pollen 4.60 out of 12
PM2.5 Good
Flu Activity Not available.
METAR KAFF 230858Z AUTO 02005KT 10SM CLR 09/07 A3021 RMK AO2 SLP165 T00870070

More Conditions Fewer Conditions

10-Day Weather Forecast

Almanac

Astronomy

Sep. 23, 2014 Rise Set
Actual Time 6:47 AM MDT 6:54 PM MDT
Civil Twilight 6:21 AM MDT 7:21 PM MDT
Nautical Twilight 5:50 AM MDT 7:52 PM MDT
Astronomical Twilight 5:18 AM MDT 8:23 PM MDT
Moon 6:14 AM MDT 6:34 PM MDT
Length of Visible Light 12h 59m
Length of Day
12h 06m
Tomorrow will be 2m 32s shorter.
Waning Crescent, 1% of the Moon is Illuminated
Today
Waning Crescent
Sep 24
New
Oct 1
First Quarter
Oct 8
Full
Oct 15
Last Quarter

Today's Extremes

State Highs State Lows

Community

WunderPhotos

Upload Photos

1,755,644 photos uploaded!

Nearby

Air Quality

  Air Quality AQ Index Pollutant
Yesterday Good
OZONE
Yesterday Good
PM2.5
Current Good
PM2.5
Tuesday Good
PM2.5
Tuesday Good
OZONE

Snow Depth

Station Depth Elevation
Beartown 0 in 11600 ft
Vail Mountain 86 in 10300 ft
Rough And Tumble 1 in 10360 ft
Elk River 0 in 8700 ft
Brumley 0 in 10600 ft

Earthquake Activity

City Distance Mag. Time & Date
No recent earthquake activity has been reported nearby.
Minimum magnitude displayed is 2.5.

Coastal Water Temperatures

Place Temperature
No Stations Reporting

Nearby Weather Stations